Forside
METAR-TAF:

METAR-TAF

Lufthavne :

Beirut, Libanon

Breddekreds: 33-49N, længdekreds: 035-29E, højde: 29 m

Aktuelle vejr

Denne rapport blev lavet for 32 minutter siden, kl. 12:00 UTC
Vind 7 kt fra nordnordvest
Temperatur 18°C
Fugtighed 59%
Tryk 1017 hPa
Sigt: 5000 m
tåge/dis

METAR: OLBA 221200Z 34007KT 5000 HZ NSC 18/10 Q1017 NOSIG

Tid: 14:32 (12:32 UTC)

Vejrudsigter

Denne rapport blev lavet for 2 timer og 32 minutter siden, kl. 10:00 UTC
Foreløbig gælder fra 22 på 12 UTC til 23 på 18 UTC
Vind 10 kt fra nordnordvest
Sigt: 7000 m
Midlertidig
fra 22 på 12 UTC til 22 på 16 UTC
Sigt: 5000 m
tåge/dis
ændring
fra 22 på 18 UTC til 22 på 20 UTC
Vind 10 kt fra nordnordvest

TAF: OLBA 221000Z 2212/2318 33010KT 7000 NSC TEMPO 2212/2216 5000 HZ BECMG 2218/2220 12004KT 2306/2309 34010KT

Vejrobservationer og prognoser fra mere end 4000 lufthavne (METAR og TAF).

De gule og røde prikker repræsenterer de meteorologiske stationer.

Flyt musen over at se navnet på stationen.

Så klik over at se vejr observationer og prognoser.

At skifte det kort: Klik på de grønne knapper med et sort kors for at zoome ind; på den grønne knap med en bindestreg for at zoome ud; eller på de grønne pile for tilstødende kort.


METAR-TAF: